Time;durP1;ratioP1;P1;durP2;ratioP2;P2;SDS_P1;SDS_P2;PMS_P1;PMS_P2;Temp;Humidity;BMP_temperature;BMP_pressure;BME280_temperature;BME280_humidity;BME280_pressure;Samples;Min_cycle;Max_cycle;Signal;HPM_P1;HPM_P2
2022/10/05 00:00:25;;;;;;;23.08;8.73;;;;;;;11.49;80.66;100491.75;5068674;28;20076;-91
2022/10/05 00:02:53;;;;;;;16.15;8.13;;;;;;;11.48;80.43;100490.91;5070241;28;20059;-91
2022/10/05 00:05:25;;;;;;;21.13;8.57;;;;;;;11.42;80.18;100477.25;5084688;28;20090;-91
2022/10/05 00:07:53;;;;;;;16.40;8.57;;;;;;;11.54;80.26;100472.75;5056770;28;20055;-91
2022/10/05 00:10:20;;;;;;;13.60;7.75;;;;;;;11.57;80.80;100478.66;5076458;28;20104;-91
2022/10/05 00:12:48;;;;;;;21.42;8.43;;;;;;;11.52;80.17;100484.38;5060129;28;20040;-91
2022/10/05 00:15:18;;;;;;;17.23;8.05;;;;;;;11.59;79.74;100486.53;5053442;28;20060;-91
2022/10/05 00:17:44;;;;;;;20.10;8.20;;;;;;;11.54;80.15;100481.56;5068579;28;20487;-90
2022/10/05 00:20:16;;;;;;;18.55;7.72;;;;;;;11.44;80.30;100477.97;5077568;28;20657;-91
2022/10/05 00:22:43;;;;;;;15.90;7.60;;;;;;;11.49;80.38;100476.63;5083709;28;20457;-91
2022/10/05 00:25:18;;;;;;;18.27;7.38;;;;;;;11.34;79.45;100479.69;5072829;28;20043;-91
2022/10/05 00:27:51;;;;;;;15.98;8.07;;;;;;;11.39;79.67;100491.63;5047943;28;20051;-91
2022/10/05 00:30:19;;;;;;;17.85;7.57;;;;;;;11.36;79.31;100489.25;5052834;28;20654;-90
2022/10/05 00:32:48;;;;;;;17.27;8.52;;;;;;;11.24;79.98;100496.38;5068631;28;20048;-91
2022/10/05 00:35:16;;;;;;;15.88;7.85;;;;;;;11.15;80.32;100498.97;5053923;28;20043;-92
2022/10/05 00:37:43;;;;;;;20.98;8.27;;;;;;;11.19;80.11;100495.91;5073321;28;20044;-90
2022/10/05 00:40:18;;;;;;;15.93;7.78;;;;;;;11.13;79.95;100483.13;5034214;28;20048;-90
2022/10/05 00:43:07;;;;;;;16.65;7.60;;;;;;;11.19;80.29;100490.59;5093662;28;20507;-89
2022/10/05 00:45:42;;;;;;;17.90;9.02;;;;;;;11.17;80.41;100491.69;5087621;28;20040;-90
2022/10/05 00:48:15;;;;;;;22.38;9.23;;;;;;;11.19;79.90;100484.44;5074549;28;20407;-89
2022/10/05 00:50:45;;;;;;;19.58;8.25;;;;;;;11.33;80.02;100489.50;5057818;28;20108;-90
2022/10/05 00:53:42;;;;;;;17.52;8.05;;;;;;;11.18;79.76;100482.75;5075890;28;20051;-89
2022/10/05 00:56:28;;;;;;;15.60;7.72;;;;;;;11.09;79.61;100484.31;5068799;28;20036;-91
2022/10/05 00:59:06;;;;;;;18.70;7.85;;;;;;;11.02;79.54;100481.34;5085757;28;20051;-92
2022/10/05 01:01:58;;;;;;;21.58;9.23;;;;;;;10.94;79.63;100477.59;5084946;28;20051;-91
2022/10/05 01:04:40;;;;;;;17.05;7.32;;;;;;;10.84;79.67;100486.31;5054657;28;20036;-92
2022/10/05 01:07:21;;;;;;;16.33;7.47;;;;;;;10.94;80.03;100483.75;5081886;28;20044;-91
2022/10/05 01:10:04;;;;;;;16.10;8.05;;;;;;;10.81;79.62;100481.25;5072417;28;20046;-91
2022/10/05 01:12:40;;;;;;;16.75;6.90;;;;;;;10.80;79.50;100482.19;5076191;28;20040;-91
2022/10/05 01:15:32;;;;;;;18.58;7.60;;;;;;;10.88;79.81;100483.41;5061667;28;20035;-91
2022/10/05 01:18:09;;;;;;;18.90;8.40;;;;;;;10.75;81.19;100478.22;5030468;28;20048;-91
2022/10/05 01:20:52;;;;;;;21.88;9.18;;;;;;;10.94;81.01;100488.22;5058759;28;20048;-90
2022/10/05 01:23:29;;;;;;;24.42;8.73;;;;;;;10.91;80.97;100478.66;5073950;28;20040;-90
2022/10/05 01:26:16;;;;;;;21.95;9.38;;;;;;;10.89;81.17;100477.09;5101376;28;20048;-90
2022/10/05 01:28:47;;;;;;;20.38;9.77;;;;;;;10.87;82.07;100474.59;5069054;28;20063;-90
2022/10/05 01:31:17;;;;;;;24.98;7.93;;;;;;;10.95;81.61;100469.50;5035677;28;20043;-91
2022/10/05 01:33:56;;;;;;;18.58;8.48;;;;;;;10.91;81.83;100467.19;5089167;28;20043;-91
2022/10/05 01:36:33;;;;;;;18.17;8.45;;;;;;;10.87;80.23;100456.00;5085351;28;20036;-91
2022/10/05 01:39:23;;;;;;;16.30;7.72;;;;;;;10.78;79.51;100457.53;5045013;28;20048;-91
2022/10/05 01:41:57;;;;;;;14.05;7.80;;;;;;;10.86;79.50;100449.84;5060521;28;20051;-91
2022/10/05 01:44:35;;;;;;;21.92;7.70;;;;;;;10.82;79.19;100450.19;5043484;28;20048;-91
2022/10/05 01:47:08;;;;;;;18.25;8.20;;;;;;;10.87;78.96;100445.34;5070010;28;20047;-90
2022/10/05 01:49:37;;;;;;;28.48;9.85;;;;;;;10.90;79.48;100447.75;5058733;28;20691;-91
2022/10/05 01:52:19;;;;;;;23.70;8.52;;;;;;;10.73;79.06;100445.59;5069318;28;20040;-91
2022/10/05 01:55:03;;;;;;;20.08;7.03;;;;;;;10.61;79.28;100440.31;5091821;28;20123;-91
2022/10/05 01:58:01;;;;;;;12.27;7.05;;;;;;;10.50;79.10;100440.28;5062198;28;20052;-91
2022/10/05 02:00:39;;;;;;;14.73;6.95;;;;;;;10.67;78.80;100430.16;5041904;28;20462;-91
2022/10/05 02:03:13;;;;;;;16.52;7.70;;;;;;;10.57;78.83;100435.34;5065363;28;20048;-91
2022/10/05 02:05:47;;;;;;;;;;;;;;;10.22;79.98;100449.53;5054192;28;20062;-91
2022/10/05 02:08:25;;;;;;;14.82;7.25;;;;;;;10.42;79.36;100451.50;5076759;28;19919;-91
2022/10/05 02:10:54;;;;;;;29.55;8.73;;;;;;;10.57;79.63;100453.94;5060478;28;20055;-91
2022/10/05 02:13:29;;;;;;;31.83;9.02;;;;;;;10.58;80.12;100452.97;5075889;28;20035;-91
2022/10/05 02:16:02;;;;;;;21.27;8.87;;;;;;;10.57;79.95;100454.78;5057968;28;20052;-91
2022/10/05 02:18:35;;;;;;;18.10;7.63;;;;;;;10.65;79.13;100465.66;5071235;28;20044;-91
2022/10/05 02:21:03;;;;;;;14.05;7.60;;;;;;;10.62;79.28;100475.66;5061024;28;20433;-92
2022/10/05 02:23:32;;;;;;;16.85;7.05;;;;;;;10.65;78.72;100468.28;5041694;28;20513;-91
2022/10/05 02:26:00;;;;;;;16.90;7.50;;;;;;;10.71;78.63;100469.66;5058462;28;20051;-91
2022/10/05 02:28:35;;;;;;;14.45;7.18;;;;;;;10.61;78.83;100466.88;5058944;28;20543;-92
2022/10/05 02:31:08;;;;;;;13.73;6.20;;;;;;;10.54;78.90;100467.47;5090137;28;20051;-90
2022/10/05 02:33:35;;;;;;;21.75;7.13;;;;;;;10.62;79.27;100465.88;5056509;28;20098;-89
2022/10/05 02:36:23;;;;;;;14.73;7.07;;;;;;;10.49;79.15;100464.31;5054076;28;20052;-90
2022/10/05 02:39:02;;;;;;;13.80;7.10;;;;;;;10.46;79.14;100468.06;5058195;28;20085;-90
2022/10/05 02:41:32;;;;;;;12.68;7.18;;;;;;;10.49;78.90;100459.03;5058308;28;20132;-90
2022/10/05 02:44:25;;;;;;;15.30;6.82;;;;;;;10.39;78.86;100462.38;5069973;28;20135;-90
2022/10/05 02:47:14;;;;;;;13.10;6.80;;;;;;;10.34;79.01;100458.41;5053744;28;20594;-90
2022/10/05 02:49:47;;;;;;;14.85;7.00;;;;;;;10.49;79.68;100465.16;5089969;28;20407;-90
2022/10/05 02:52:23;;;;;;;14.18;7.22;;;;;;;10.39;80.54;100462.38;5074188;28;20130;-90
2022/10/05 02:55:23;;;;;;;16.75;7.57;;;;;;;10.40;80.71;100453.44;5061030;28;20040;-90
2022/10/05 02:58:00;;;;;;;16.35;7.63;;;;;;;10.52;80.08;100451.66;5075266;28;20039;-90
2022/10/05 03:00:31;;;;;;;16.92;7.03;;;;;;;10.52;80.56;100445.50;5045087;28;20471;-90
2022/10/05 03:03:27;;;;;;;13.60;7.35;;;;;;;10.46;80.38;100444.16;5074678;28;20118;-90
2022/10/05 03:06:01;;;;;;;18.90;7.68;;;;;;;10.56;80.64;100437.16;5051772;28;20513;-91
2022/10/05 03:08:53;;;;;;;32.15;11.38;;;;;;;10.48;81.24;100433.41;5069153;28;20497;-90
2022/10/05 03:11:57;;;;;;;27.85;11.52;;;;;;;10.42;81.55;100422.31;5075350;28;20104;-91
2022/10/05 03:14:51;;;;;;;28.58;11.02;;;;;;;10.42;80.87;100416.16;5062493;28;20347;-89
2022/10/05 03:17:21;;;;;;;27.40;9.48;;;;;;;10.57;79.88;100414.13;5044464;28;20051;-90
2022/10/05 03:20:06;;;;;;;19.88;10.82;;;;;;;10.42;79.43;100417.00;5079331;28;20040;-91
2022/10/05 03:22:36;;;;;;;17.90;9.80;;;;;;;10.41;78.68;100419.78;5052790;28;20139;-90
2022/10/05 03:25:34;;;;;;;15.40;8.52;;;;;;;10.23;77.69;100419.38;5075384;28;20048;-88
2022/10/05 03:28:20;;;;;;;11.93;6.55;;;;;;;10.22;77.81;100413.22;5075774;28;20399;-90
2022/10/05 03:30:55;;;;;;;22.90;7.45;;;;;;;10.34;78.50;100413.28;5076540;28;20044;-90
2022/10/05 03:33:30;;;;;;;20.40;9.00;;;;;;;10.19;79.22;100415.28;5059910;28;20055;-90
2022/10/05 03:36:15;;;;;;;14.57;7.32;;;;;;;10.22;79.66;100413.22;5073835;28;20036;-90
2022/10/05 03:38:45;;;;;;;17.05;7.63;;;;;;;10.25;80.15;100411.28;5084499;28;20058;-90
2022/10/05 03:41:22;;;;;;;20.50;8.50;;;;;;;10.26;80.91;100418.31;5066128;28;20049;-90
2022/10/05 03:44:08;;;;;;;30.30;10.02;;;;;;;10.14;80.25;100425.41;5065017;28;20044;-89
2022/10/05 03:47:24;;;;;;;17.13;8.13;;;;;;;10.20;80.39;100423.13;5072568;28;20132;-90
2022/10/05 03:49:55;;;;;;;35.42;9.43;;;;;;;10.30;80.62;100417.13;5057557;28;20400;-90
2022/10/05 03:52:31;;;;;;;43.17;9.02;;;;;;;10.24;80.98;100421.06;5072264;28;20070;-90
2022/10/05 03:55:02;;;;;;;23.13;8.60;;;;;;;10.26;80.79;100420.97;5070157;28;20062;-90
2022/10/05 03:57:33;;;;;;;19.52;7.63;;;;;;;10.23;81.42;100416.72;5077164;28;20514;-91
2022/10/05 04:00:04;;;;;;;64.15;8.43;;;;;;;10.22;81.72;100420.34;5075057;28;20040;-90
2022/10/05 04:03:11;;;;;;;49.72;8.75;;;;;;;10.10;82.36;100424.81;5059047;28;20067;-90
2022/10/05 04:05:47;;;;;;;20.30;7.78;;;;;;;10.16;81.98;100424.31;5061627;28;20485;-90
2022/10/05 04:08:44;;;;;;;22.88;8.98;;;;;;;10.17;81.78;100426.00;5062677;28;20044;-91
2022/10/05 04:11:22;;;;;;;20.25;8.65;;;;;;;10.22;81.24;100423.81;5095013;28;20031;-90
2022/10/05 04:13:53;;;;;;;15.93;7.33;;;;;;;10.23;81.00;100422.03;5089057;28;20040;-90
2022/10/05 04:16:26;;;;;;;21.83;9.50;;;;;;;10.20;81.01;100427.56;5050614;28;20486;-90
2022/10/05 04:19:00;;;;;;;25.77;9.00;;;;;;;10.22;81.02;100429.13;5072783;28;20074;-90
2022/10/05 04:21:35;;;;;;;19.77;8.15;;;;;;;10.23;80.97;100424.69;5061307;28;20376;-90
2022/10/05 04:24:10;;;;;;;25.15;9.38;;;;;;;10.21;81.05;100422.16;5061983;28;20044;-90
2022/10/05 04:26:50;;;;;;;18.38;8.73;;;;;;;10.14;81.56;100422.75;5076305;28;20036;-90
2022/10/05 04:29:28;;;;;;;14.73;8.60;;;;;;;10.26;81.79;100427.09;5072750;28;20115;-90
2022/10/05 04:32:14;;;;;;;15.25;6.95;;;;;;;10.08;81.37;100424.06;5050212;28;20051;-90
2022/10/05 04:35:13;;;;;;;14.48;8.82;;;;;;;10.10;81.67;100422.16;5077061;28;20048;-91
2022/10/05 04:38:07;;;;;;;25.98;8.02;;;;;;;10.18;81.85;100424.22;5067245;28;20469;-90
2022/10/05 04:40:37;;;;;;;15.20;7.28;;;;;;;10.26;81.56;100426.25;5058463;28;20085;-89
2022/10/05 04:43:29;;;;;;;20.02;7.60;;;;;;;10.22;81.00;100431.78;5069557;28;20108;-90
2022/10/05 04:46:14;;;;;;;22.50;7.35;;;;;;;10.26;82.07;100431.56;5073156;28;20130;-90
2022/10/05 04:49:18;;;;;;;12.82;7.25;;;;;;;10.15;82.24;100424.41;5083968;28;20052;-90
2022/10/05 04:52:03;;;;;;;14.68;6.55;;;;;;;10.17;81.91;100425.16;5089609;28;20089;-90
2022/10/05 04:55:05;;;;;;;15.73;6.95;;;;;;;10.18;81.54;100419.75;5089551;28;20044;-90
2022/10/05 04:57:51;;;;;;;11.45;6.20;;;;;;;10.27;80.81;100422.63;5071898;28;20052;-89
2022/10/05 05:00:30;;;;;;;13.88;8.23;;;;;;;10.16;80.18;100426.13;5088963;28;20036;-88
2022/10/05 05:03:03;;;;;;;17.05;7.45;;;;;;;10.21;80.13;100414.19;5075680;28;20498;-88
2022/10/05 05:05:55;;;;;;;17.48;7.82;;;;;;;10.10;80.01;100426.59;5086804;28;20180;-88
2022/10/05 05:09:08;;;;;;;15.85;7.15;;;;;;;9.89;80.24;100431.72;5083672;28;20063;-89
2022/10/05 05:12:10;;;;;;;14.50;7.00;;;;;;;9.90;80.71;100423.66;5084929;28;20047;-89
2022/10/05 05:15:03;;;;;;;16.42;7.05;;;;;;;9.87;80.92;100431.00;5071404;28;20047;-88
2022/10/05 05:17:46;;;;;;;18.73;8.15;;;;;;;9.93;81.82;100438.50;5048508;28;20040;-88
2022/10/05 05:20:21;;;;;;;15.57;7.50;;;;;;;9.91;82.23;100443.06;5058536;28;20363;-88
2022/10/05 05:23:00;;;;;;;40.05;8.63;;;;;;;9.92;82.58;100442.97;5057940;28;20376;-88
2022/10/05 05:25:46;;;;;;;43.85;9.02;;;;;;;9.95;82.60;100441.91;5073099;28;20076;-88
2022/10/05 05:28:26;;;;;;;21.80;7.63;;;;;;;9.93;82.54;100449.97;5084106;28;20074;-88
2022/10/05 05:31:08;;;;;;;30.13;9.57;;;;;;;9.93;81.90;100451.78;5068855;28;20042;-88
2022/10/05 05:33:50;;;;;;;18.38;9.20;;;;;;;9.91;81.19;100462.50;5089961;28;20040;-88
2022/10/05 05:36:25;;;;;;;19.75;8.82;;;;;;;10.05;80.02;100463.25;5084161;28;20036;-88
2022/10/05 05:39:17;;;;;;;19.83;8.82;;;;;;;9.96;78.55;100455.03;5103156;28;20123;-88
2022/10/05 05:42:03;;;;;;;27.38;10.52;;;;;;;9.81;79.10;100469.44;5074653;28;20119;-88
2022/10/05 05:44:41;;;;;;;28.17;11.75;;;;;;;9.74;80.31;100473.50;5055941;28;20071;-88
2022/10/05 05:47:19;;;;;;;33.22;12.43;;;;;;;9.77;80.33;100478.63;5075375;28;20050;-88
2022/10/05 05:49:57;;;;;;;42.58;13.50;;;;;;;9.87;80.27;100484.06;5064336;28;20039;-88
2022/10/05 05:52:40;;;;;;;44.20;12.80;;;;;;;9.80;79.48;100474.88;5084364;28;20549;-88
2022/10/05 05:55:15;;;;;;;29.80;11.40;;;;;;;9.78;80.22;100477.63;5076133;28;20040;-88
2022/10/05 05:58:03;;;;;;;33.63;12.15;;;;;;;9.87;80.29;100489.34;5071528;28;20119;-88
2022/10/05 06:00:36;;;;;;;38.50;13.30;;;;;;;9.89;79.90;100490.09;5062302;28;20036;-88
2022/10/05 06:03:12;;;;;;;27.67;11.80;;;;;;;9.87;79.56;100492.00;5070983;28;20396;-89
2022/10/05 06:05:52;;;;;;;35.90;11.82;;;;;;;9.76;79.71;100495.47;5062934;28;20434;-89
2022/10/05 06:08:38;;;;;;;37.63;11.82;;;;;;;9.76;79.65;100491.00;5062987;28;20446;-89
2022/10/05 06:11:26;;;;;;;27.15;10.48;;;;;;;9.93;79.82;100491.56;5081572;28;20040;-89
2022/10/05 06:13:55;;;;;;;28.90;11.05;;;;;;;9.88;79.82;100499.03;5088531;28;20036;-89
2022/10/05 06:16:39;;;;;;;24.58;10.88;;;;;;;9.87;79.75;100494.66;5076801;28;20101;-89
2022/10/05 06:19:26;;;;;;;27.50;10.65;;;;;;;9.80;79.78;100498.75;5061151;28;20081;-89
2022/10/05 06:22:00;;;;;;;25.98;10.98;;;;;;;9.92;79.69;100500.47;5074648;28;20040;-89
2022/10/05 06:24:52;;;;;;;25.98;10.27;;;;;;;9.85;79.68;100517.81;5077736;28;20058;-89
2022/10/05 06:27:23;;;;;;;26.67;9.38;;;;;;;9.96;79.56;100520.50;5064185;28;20067;-89
2022/10/05 06:30:13;;;;;;;22.45;10.05;;;;;;;9.95;79.42;100513.53;5099592;28;20035;-89
2022/10/05 06:32:50;;;;;;;27.73;10.75;;;;;;;9.93;79.48;100512.78;5076908;28;20126;-89
2022/10/05 06:35:35;;;;;;;24.63;10.23;;;;;;;9.89;79.98;100520.13;5080635;28;20065;-89
2022/10/05 06:38:20;;;;;;;23.95;10.27;;;;;;;9.96;80.31;100524.00;5078298;28;20048;-89
2022/10/05 06:41:25;;;;;;;24.60;9.95;;;;;;;10.02;80.34;100524.50;5102962;28;20050;-89
2022/10/05 06:44:02;;;;;;;26.75;10.73;;;;;;;10.13;80.18;100532.53;5085563;28;20089;-89
2022/10/05 06:46:51;;;;;;;23.90;10.88;;;;;;;10.09;80.76;100523.09;5076436;28;20071;-89
2022/10/05 06:50:03;;;;;;;26.90;10.07;;;;;;;10.00;81.12;100524.63;5096692;28;20043;-89
2022/10/05 06:53:01;;;;;;;27.83;10.90;;;;;;;10.05;81.11;100521.63;5078793;28;20048;-89
2022/10/05 06:55:44;;;;;;;27.98;10.80;;;;;;;10.13;80.97;100521.91;5093937;28;20063;-89
2022/10/05 06:58:49;;;;;;;33.65;13.10;;;;;;;10.03;81.86;100523.56;5055056;28;20074;-90
2022/10/05 07:01:22;;;;;;;31.27;13.27;;;;;;;10.19;81.39;100526.75;5088606;28;20044;-89
2022/10/05 07:04:02;;;;;;;34.50;13.75;;;;;;;10.29;80.96;100526.91;5084511;28;20093;-90
2022/10/05 07:06:38;;;;;;;31.60;15.50;;;;;;;10.46;81.34;100522.97;5092738;28;20036;-90
2022/10/05 07:09:20;;;;;;;32.10;14.32;;;;;;;10.40;81.25;100521.63;5065388;28;20056;-90
2022/10/05 07:11:56;;;;;;;34.05;15.82;;;;;;;10.56;81.13;100514.19;5075201;28;20044;-89
2022/10/05 07:14:38;;;;;;;30.85;14.10;;;;;;;10.62;80.79;100513.69;5081550;28;20531;-89
2022/10/05 07:17:24;;;;;;;25.48;11.32;;;;;;;10.53;81.88;100510.91;5087507;28;20135;-90
2022/10/05 07:20:21;;;;;;;23.88;11.02;;;;;;;10.61;81.82;100516.50;5074446;28;20043;-89
2022/10/05 07:23:00;;;;;;;27.63;11.45;;;;;;;10.79;81.09;100515.03;5094060;28;20073;-90
2022/10/05 07:25:29;;;;;;;25.30;10.40;;;;;;;10.84;81.61;100512.03;5072594;28;20039;-89
2022/10/05 07:28:06;;;;;;;22.27;9.50;;;;;;;10.88;81.53;100510.81;5069836;28;20043;-89
2022/10/05 07:30:42;;;;;;;20.48;9.05;;;;;;;10.91;81.80;100518.53;5069897;28;20453;-89
2022/10/05 07:33:20;;;;;;;23.55;10.50;;;;;;;10.93;81.61;100515.75;5069349;28;20047;-88
2022/10/05 07:38:53;;;;;;;25.67;10.70;;;;;;;11.01;81.05;100514.19;5097545;28;20491;-88
2022/10/05 07:41:30;;;;;;;23.02;11.02;;;;;;;11.09;81.08;100516.22;5074958;28;20064;-88
2022/10/05 07:44:25;;;;;;;21.00;10.00;;;;;;;11.05;81.95;100520.94;5087552;28;20036;-88
2022/10/05 07:47:00;;;;;;;24.80;10.10;;;;;;;11.18;81.13;100518.16;5073565;28;20044;-88
2022/10/05 07:49:35;;;;;;;21.52;10.95;;;;;;;11.23;80.88;100515.13;5074556;28;20089;-88
2022/10/05 07:52:11;;;;;;;22.35;10.85;;;;;;;11.23;81.47;100520.44;5073172;28;20044;-89
2022/10/05 07:54:46;;;;;;;23.10;10.98;;;;;;;11.37;81.03;100522.84;5085726;28;20058;-88
2022/10/05 07:57:20;;;;;;;29.70;12.15;;;;;;;11.36;81.34;100522.97;5075734;28;20035;-89
2022/10/05 08:00:10;;;;;;;31.23;12.18;;;;;;;11.37;81.54;100521.97;5059443;28;20139;-88
2022/10/05 08:02:55;;;;;;;25.80;11.02;;;;;;;11.39;81.73;100520.06;5075708;28;20054;-88
2022/10/05 08:05:28;;;;;;;26.75;12.15;;;;;;;11.44;81.42;100517.88;5091401;28;20039;-88
2022/10/05 08:08:16;;;;;;;23.42;11.55;;;;;;;11.41;82.16;100512.81;5075214;28;20032;-88
2022/10/05 08:11:04;;;;;;;24.45;11.63;;;;;;;11.49;82.05;100519.16;5092087;28;20056;-88
2022/10/05 08:13:38;;;;;;;21.30;11.50;;;;;;;11.52;81.85;100515.41;5090451;28;20039;-88
2022/10/05 08:16:13;;;;;;;25.27;11.95;;;;;;;11.58;81.48;100519.41;5076759;28;20070;-88
2022/10/05 08:19:01;;;;;;;28.48;11.98;;;;;;;11.56;82.35;100513.38;5055591;28;20043;-88
2022/10/05 08:21:36;;;;;;;27.02;13.43;;;;;;;11.63;81.96;100509.25;5073915;28;20048;-88
2022/10/05 08:24:21;;;;;;;33.78;14.73;;;;;;;11.63;82.45;100501.25;5069953;28;20487;-88
2022/10/05 08:27:16;;;;;;;28.10;13.00;;;;;;;11.65;82.24;100502.81;5076422;28;20036;-89
2022/10/05 08:29:54;;;;;;;24.52;12.70;;;;;;;11.72;82.40;100496.00;5067818;28;20472;-87
2022/10/05 08:32:37;;;;;;;31.88;13.70;;;;;;;11.76;82.10;100501.94;5092829;28;20048;-89
2022/10/05 08:35:25;;;;;;;32.78;14.65;;;;;;;11.77;82.52;100500.94;5074520;28;20044;-89
2022/10/05 08:37:53;;;;;;;26.92;11.65;;;;;;;11.88;82.08;100497.41;5074854;28;20043;-88
2022/10/05 08:40:38;;;;;;;26.92;12.55;;;;;;;11.82;82.85;100501.41;5074520;28;20130;-88
2022/10/05 08:44:16;;;;;;;30.30;13.73;;;;;;;11.81;83.54;100502.41;5090173;28;20057;-87
2022/10/05 08:47:04;;;;;;;25.63;12.90;;;;;;;11.87;82.97;100503.72;4989421;28;20056;-88
2022/10/05 08:49:34;;;;;;;26.92;13.40;;;;;;;11.98;82.79;100502.81;5031548;28;20404;-88
2022/10/05 08:52:09;;;;;;;28.83;12.32;;;;;;;12.01;82.95;100500.78;5093415;28;20047;-88
2022/10/05 08:55:10;;;;;;;29.38;14.50;;;;;;;11.98;83.83;100494.84;5074190;28;20051;-87
2022/10/05 08:57:58;;;;;;;25.83;13.63;;;;;;;12.00;83.71;100499.06;5071802;28;20046;-88
2022/10/05 09:00:39;;;;;;;26.75;13.55;;;;;;;12.08;83.74;100498.41;5100805;28;20043;-88
2022/10/05 09:03:17;;;;;;;29.83;12.65;;;;;;;12.09;83.77;100494.81;5085994;28;20052;-89
2022/10/05 09:06:13;;;;;;;27.95;14.07;;;;;;;12.10;84.35;100496.47;5085991;28;20495;-88
2022/10/05 09:08:46;;;;;;;31.33;14.50;;;;;;;12.15;84.42;100481.81;5086122;28;20120;-87
2022/10/05 09:11:39;;;;;;;26.67;13.10;;;;;;;12.13;84.92;100473.09;5100712;28;20044;-87
2022/10/05 09:14:43;;;;;;;27.63;13.75;;;;;;;12.19;84.91;100485.06;5074310;28;20047;-89
2022/10/05 09:18:04;;;;;;;29.65;15.68;;;;;;;12.24;84.89;100490.00;5085495;28;20503;-88
2022/10/05 09:20:54;;;;;;;30.55;13.25;;;;;;;12.29;85.64;100475.31;5089942;28;20040;-89
2022/10/05 09:23:32;;;;;;;34.78;13.98;;;;;;;12.36;85.93;100470.28;5100593;28;20492;-88
2022/10/05 09:26:38;;;;;;;28.08;14.25;;;;;;;12.39;86.19;100467.38;5090343;28;20376;-88
2022/10/05 09:29:13;;;;;;;32.67;14.57;;;;;;;12.51;85.70;100468.13;5043589;28;20531;-88
2022/10/05 09:32:05;;;;;;;29.10;12.63;;;;;;;12.52;85.67;100459.19;5080845;28;20046;-87
2022/10/05 09:34:44;;;;;;;31.40;15.38;;;;;;;12.56;86.32;100464.09;5105334;28;20044;-89
2022/10/05 09:37:38;;;;;;;27.38;13.93;;;;;;;12.62;86.43;100462.72;5068049;28;20028;-88
2022/10/05 09:44:05;;;;;;;26.52;12.98;;;;;;;12.68;86.72;100451.53;5099116;28;20373;-88
2022/10/05 09:46:51;;;;;;;26.23;13.80;;;;;;;12.73;86.49;100443.13;5088924;28;20032;-88
2022/10/05 09:49:46;;;;;;;32.22;15.95;;;;;;;12.77;86.88;100452.53;5102147;28;20054;-88
2022/10/05 09:52:31;;;;;;;26.63;13.60;;;;;;;12.85;86.41;100449.19;5063634;28;20640;-89
2022/10/05 09:55:16;;;;;;;25.60;13.50;;;;;;;12.86;86.45;100443.72;5091683;28;20040;-88
2022/10/05 09:57:46;;;;;;;33.85;15.35;;;;;;;12.98;86.52;100444.47;5104240;28;20044;-87
2022/10/05 10:00:49;;;;;;;32.63;15.38;;;;;;;12.96;86.92;100435.78;5085488;28;20046;-88
2022/10/05 10:04:08;;;;;;;36.38;14.18;;;;;;;12.99;87.27;100430.16;5071072;28;20044;-89
2022/10/05 10:06:41;;;;;;;31.58;15.93;;;;;;;13.09;87.30;100431.03;5089131;28;20044;-89
2022/10/05 10:09:31;;;;;;;40.15;16.67;;;;;;;13.12;87.43;100429.91;5085011;28;20043;-88
2022/10/05 10:12:30;;;;;;;27.58;14.57;;;;;;;13.13;88.42;100432.44;5076518;28;20048;-89
2022/10/05 10:15:24;;;;;;;30.73;16.33;;;;;;;13.19;88.42;100423.06;5089119;28;20036;-89
2022/10/05 10:18:00;;;;;;;31.27;15.35;;;;;;;13.27;88.66;100415.22;5076935;28;20400;-89
2022/10/05 10:20:36;;;;;;;38.35;18.17;;;;;;;13.33;89.12;100421.81;5068448;28;20961;-88
2022/10/05 10:23:20;;;;;;;30.13;14.68;;;;;;;13.36;89.33;100417.06;5087774;28;20044;-89
2022/10/05 10:26:02;;;;;;;35.75;15.98;;;;;;;13.44;89.08;100411.88;5102354;28;20036;-88
2022/10/05 10:28:50;;;;;;;27.98;15.18;;;;;;;13.49;89.32;100405.28;5082411;28;20044;-88
2022/10/05 10:31:36;;;;;;;32.28;14.63;;;;;;;13.56;89.65;100398.38;5077371;28;20394;-90
2022/10/05 10:34:27;;;;;;;24.55;13.20;;;;;;;13.54;90.33;100397.69;5060256;28;20040;-88
2022/10/05 10:37:01;;;;;;;34.33;15.40;;;;;;;13.63;89.81;100391.50;5065607;28;20043;-88
2022/10/05 10:40:01;;;;;;;32.30;14.60;;;;;;;13.64;92.58;100391.38;5066382;28;20093;-89
2022/10/05 10:42:52;;;;;;;30.55;14.05;;;;;;;13.73;89.98;100396.81;5091005;28;20035;-87
2022/10/05 10:45:45;;;;;;;26.70;13.15;;;;;;;13.72;89.90;100398.66;5054253;28;20503;-88
2022/10/05 10:48:18;;;;;;;32.60;14.82;;;;;;;13.76;90.53;100397.38;5075698;28;20067;-88
2022/10/05 10:51:30;;;;;;;25.33;13.18;;;;;;;13.78;90.55;100394.56;5073481;28;20052;-88
2022/10/05 10:54:02;;;;;;;28.98;13.18;;;;;;;13.90;90.12;100393.44;5059297;28;20483;-88
2022/10/05 10:56:46;;;;;;;27.25;13.68;;;;;;;13.89;90.06;100391.72;5089160;28;20036;-89
2022/10/05 10:59:32;;;;;;;24.30;12.75;;;;;;;13.92;90.80;100386.13;5092494;28;20368;-88
2022/10/05 11:02:18;;;;;;;20.33;11.88;;;;;;;13.98;91.12;100376.69;5090250;28;20498;-89
2022/10/05 11:04:57;;;;;;;26.80;12.77;;;;;;;14.04;90.74;100376.97;5081634;28;20044;-89
2022/10/05 11:08:21;;;;;;;26.80;11.75;;;;;;;14.09;91.82;100373.84;5089392;28;20399;-88
2022/10/05 11:11:26;;;;;;;19.48;12.20;;;;;;;14.12;90.70;100368.22;5014372;28;20045;-89
2022/10/05 11:14:19;;;;;;;17.80;10.43;;;;;;;14.22;91.15;100368.16;5016756;28;20045;-88
2022/10/05 11:17:08;;;;;;;19.33;10.00;;;;;;;14.25;90.81;100371.41;5072435;28;20044;-89
2022/10/05 11:20:08;;;;;;;23.30;10.27;;;;;;;14.36;91.82;100377.56;5089374;28;20043;-89
2022/10/05 11:22:40;;;;;;;13.38;9.25;;;;;;;14.42;91.02;100367.09;5062340;28;20430;-89
2022/10/05 11:25:19;;;;;;;16.38;9.15;;;;;;;14.46;90.86;100359.66;5071802;28;20047;-90
2022/10/05 11:27:57;;;;;;;11.43;7.50;;;;;;;14.47;90.45;100362.16;5078248;28;20060;-88
2022/10/05 11:30:36;;;;;;;14.40;7.90;;;;;;;14.53;90.37;100356.28;5089095;28;20052;-89
2022/10/05 11:33:26;;;;;;;15.75;7.03;;;;;;;14.52;89.84;100367.91;5090187;28;20044;-88
2022/10/05 11:36:07;;;;;;;11.55;6.82;;;;;;;14.59;89.54;100362.00;5114247;28;20484;-89
2022/10/05 11:38:38;;;;;;;10.35;6.53;;;;;;;14.62;89.23;100359.03;5090840;28;20052;-89
2022/10/05 11:41:26;;;;;;;12.13;7.00;;;;;;;14.58;88.87;100358.50;5082772;28;20130;-89
2022/10/05 11:44:12;;;;;;;13.70;7.50;;;;;;;14.63;89.00;100361.56;5089505;28;20094;-90
2022/10/05 11:46:54;;;;;;;10.02;6.35;;;;;;;14.65;88.95;100359.56;5083209;28;20040;-89
2022/10/05 11:49:27;;;;;;;10.23;6.63;;;;;;;14.73;88.66;100353.47;5106029;28;20047;-89
2022/10/05 11:52:03;;;;;;;11.38;6.90;;;;;;;14.74;88.87;100355.19;5091573;28;20070;-88
2022/10/05 11:54:42;;;;;;;12.52;8.05;;;;;;;14.79;89.22;100352.88;5095141;28;20383;-89
2022/10/05 11:57:38;;;;;;;12.38;7.50;;;;;;;14.78;89.18;100348.50;5082221;28;20063;-90
2022/10/05 12:00:13;;;;;;;24.23;14.77;;;;;;;14.84;89.07;100349.78;5096502;28;20048;-85
2022/10/05 12:02:55;;;;;;;21.90;11.80;;;;;;;14.94;89.51;100340.69;5074487;28;20064;-89
2022/10/05 12:05:44;;;;;;;18.92;8.65;;;;;;;14.97;89.27;100334.19;5088903;28;20059;-89
2022/10/05 12:08:44;;;;;;;15.48;7.97;;;;;;;14.93;89.15;100322.97;5091523;28;20376;-90
2022/10/05 12:11:33;;;;;;;13.60;8.23;;;;;;;15.00;89.20;100327.69;5094971;28;20048;-90
2022/10/05 12:14:04;;;;;;;14.10;7.80;;;;;;;15.08;89.31;100317.06;5075738;28;20372;-91
2022/10/05 12:16:58;;;;;;;13.50;7.20;;;;;;;15.15;89.02;100320.81;5077022;28;20039;-90
2022/10/05 12:19:39;;;;;;;14.25;7.20;;;;;;;15.18;88.78;100320.50;5075203;28;20598;-89
2022/10/05 12:22:15;;;;;;;13.07;8.13;;;;;;;15.23;89.15;100317.38;5095955;28;20108;-88
2022/10/05 12:25:11;;;;;;;15.02;8.57;;;;;;;15.24;89.09;100311.88;5061087;28;20036;-88
2022/10/05 12:27:40;;;;;;;14.07;7.95;;;;;;;15.36;89.25;100318.66;5088395;28;20032;-89
2022/10/05 12:30:31;;;;;;;21.83;8.02;;;;;;;15.34;89.33;100320.66;5087332;28;20089;-89